Time;durP1;ratioP1;P1;durP2;ratioP2;P2;SDS_P1;SDS_P2;PMS_P1;PMS_P2;Temp;Humidity;BMP_temperature;BMP_pressure;BME280_temperature;BME280_humidity;BME280_pressure;Samples;Min_cycle;Max_cycle;Signal;HPM_P1;HPM_P2
2021/08/13 00:04:14;;;;;;;6.90;6.20;;;;;;;18.65;70.73;100512.22;10372713;28;20554;-70
2021/08/13 00:09:16;;;;;;;7.53;6.93;;;;;;;18.55;71.52;100515.47;10373926;28;20069;-71
2021/08/13 00:14:18;;;;;;;10.30;7.07;;;;;;;18.35;72.01;100509.47;10355941;28;20334;-70
2021/08/13 00:19:19;;;;;;;7.07;6.53;;;;;;;18.53;71.57;100507.56;10373302;28;20151;-71
2021/08/13 00:24:21;;;;;;;7.13;6.53;;;;;;;18.45;71.81;100509.81;10372601;28;20108;-71
2021/08/13 00:29:23;;;;;;;6.88;6.25;;;;;;;18.28;72.43;100512.56;10372080;28;20137;-71
2021/08/13 00:34:25;;;;;;;7.80;7.28;;;;;;;18.41;72.13;100509.13;10354363;28;20561;-70
2021/08/13 00:39:27;;;;;;;7.95;7.25;;;;;;;18.41;72.00;100498.47;10354411;28;20487;-70
2021/08/13 00:44:30;;;;;;;7.35;6.78;;;;;;;18.27;72.04;100505.53;10372931;28;20546;-70
2021/08/13 00:49:34;;;;;;;6.82;6.32;;;;;;;18.34;71.89;100498.94;10354634;28;20080;-70
2021/08/13 00:54:48;;;;;;;7.10;6.60;;;;;;;18.39;71.65;100499.53;10352468;28;20538;-71
2021/08/13 00:59:51;;;;;;;6.93;6.43;;;;;;;18.13;72.65;100493.84;10353077;28;20046;-71
2021/08/13 01:04:55;;;;;;;7.35;6.80;;;;;;;18.13;72.32;100493.84;10371014;28;20483;-71
2021/08/13 01:10:01;;;;;;;7.20;6.70;;;;;;;18.11;72.59;100492.25;10353194;28;20536;-70
2021/08/13 01:15:12;;;;;;;6.63;6.13;;;;;;;18.05;72.92;100489.91;10353090;28;20168;-71
2021/08/13 01:20:48;;;;;;;8.07;7.47;;;;;;;17.95;73.56;100489.56;10352743;28;20050;-71
2021/08/13 01:25:54;;;;;;;6.32;5.82;;;;;;;17.82;74.14;100491.19;10353039;28;20042;-72
2021/08/13 01:30:59;;;;;;;7.00;6.50;;;;;;;17.86;73.94;100495.38;10351908;28;20046;-70
2021/08/13 01:36:05;;;;;;;7.35;6.82;;;;;;;17.71;73.40;100506.81;10351852;28;20507;-70
2021/08/13 01:41:12;;;;;;;7.13;6.68;;;;;;;17.68;74.14;100499.03;10351373;28;20184;-70
2021/08/13 01:46:16;;;;;;;7.05;6.55;;;;;;;17.58;73.86;100490.69;10370429;28;20120;-71
2021/08/13 01:51:31;;;;;;;7.22;6.75;;;;;;;17.58;74.44;100491.53;10368295;28;20042;-71
2021/08/13 01:56:35;;;;;;;6.93;6.32;;;;;;;17.57;74.48;100488.94;10367709;28;20087;-71
2021/08/13 02:01:38;;;;;;;6.18;5.78;;;;;;;17.60;73.75;100481.66;10351509;28;20518;-71
2021/08/13 02:06:42;;;;;;;7.03;6.53;;;;;;;17.60;73.93;100484.31;10350643;28;20105;-71
2021/08/13 02:11:53;;;;;;;7.45;6.68;;;;;;;17.59;73.85;100482.63;10368963;28;20236;-71
2021/08/13 02:16:56;;;;;;;7.20;6.60;;;;;;;17.48;74.32;100481.47;10368202;28;20054;-70
2021/08/13 02:22:03;;;;;;;7.30;6.72;;;;;;;17.69;74.00;100487.44;10366745;28;20369;-70
2021/08/13 02:27:06;;;;;;;7.00;6.43;;;;;;;17.75;72.80;100487.13;10351354;28;20038;-70
2021/08/13 02:32:08;;;;;;;7.45;6.82;;;;;;;17.63;73.13;100486.81;10351349;28;20053;-70
2021/08/13 02:37:21;;;;;;;6.30;5.90;;;;;;;17.46;74.21;100483.34;10367990;28;20048;-71
2021/08/13 02:42:32;;;;;;;6.53;6.03;;;;;;;17.27;75.18;100483.47;10349970;28;20034;-71
2021/08/13 02:47:34;;;;;;;7.15;6.65;;;;;;;17.31;75.29;100483.22;10350290;28;20065;-70
2021/08/13 02:52:50;;;;;;;6.85;6.35;;;;;;;17.46;74.78;100481.56;10350804;28;20042;-71
2021/08/13 02:57:58;;;;;;;6.80;6.38;;;;;;;17.48;74.42;100477.00;10350410;28;20049;-70
2021/08/13 03:02:59;;;;;;;7.77;7.17;;;;;;;17.39;74.51;100481.00;10349626;28;20046;-71
2021/08/13 03:08:01;;;;;;;6.35;5.85;;;;;;;17.31;75.06;100485.00;10350371;28;20046;-70
2021/08/13 03:13:06;;;;;;;6.95;6.45;;;;;;;17.31;75.12;100477.91;10351227;28;20165;-71
2021/08/13 03:18:08;;;;;;;6.55;6.05;;;;;;;17.37;74.96;100490.00;10357896;28;20046;-71
2021/08/13 03:23:11;;;;;;;7.28;6.78;;;;;;;17.31;75.14;100487.66;10357954;28;20046;-71
2021/08/13 03:28:14;;;;;;;7.10;6.53;;;;;;;17.20;75.82;100492.69;10357296;28;20050;-71
2021/08/13 03:33:16;;;;;;;6.32;5.93;;;;;;;17.26;75.16;100495.00;10436927;22;20045;-75
2021/08/13 03:38:18;;;;;;;7.20;6.70;;;;;;;17.29;74.84;100505.50;10400536;28;20148;-75
2021/08/13 03:43:20;;;;;;;7.20;6.78;;;;;;;17.46;74.49;100507.28;10400315;28;20116;-75
2021/08/13 03:48:21;;;;;;;6.53;6.03;;;;;;;17.63;73.81;100499.25;10400814;28;20392;-75
2021/08/13 03:53:23;;;;;;;7.10;6.60;;;;;;;17.27;75.43;100500.28;10399721;28;20123;-75
2021/08/13 03:58:27;;;;;;;6.88;6.30;;;;;;;17.21;75.53;100500.56;10399329;28;20037;-75
2021/08/13 04:03:29;;;;;;;8.20;7.60;;;;;;;17.60;74.43;100505.59;10383797;28;20073;-75
2021/08/13 04:08:30;;;;;;;6.90;6.30;;;;;;;17.45;74.46;100505.56;10399525;28;20091;-74
2021/08/13 04:13:33;;;;;;;7.45;6.93;;;;;;;17.32;74.85;100506.19;10400129;28;20068;-74
2021/08/13 04:18:37;;;;;;;7.72;7.05;;;;;;;17.48;74.22;100511.56;10399731;28;20435;-74
2021/08/13 04:23:40;;;;;;;8.05;7.38;;;;;;;17.74;73.23;100512.84;10399198;28;20049;-75
2021/08/13 04:28:42;;;;;;;7.38;6.68;;;;;;;17.58;73.64;100506.63;10398433;28;20056;-74
2021/08/13 04:33:43;;;;;;;7.90;7.30;;;;;;;17.38;75.18;100500.56;10399582;28;20395;-74
2021/08/13 04:38:53;;;;;;;7.80;7.10;;;;;;;17.42;75.56;100505.72;10399140;28;20150;-75
2021/08/13 04:43:57;;;;;;;6.95;6.53;;;;;;;17.56;74.89;100509.34;10414945;28;20459;-76
2021/08/13 04:48:58;;;;;;;7.97;7.30;;;;;;;17.55;75.54;100514.75;10398313;28;20048;-75
2021/08/13 04:54:00;;;;;;;7.65;7.15;;;;;;;17.53;75.23;100508.66;10398032;28;20141;-75
2021/08/13 04:59:02;;;;;;;7.88;7.18;;;;;;;17.74;75.11;100512.84;10398076;28;20041;-75
2021/08/13 05:04:14;;;;;;;7.47;6.93;;;;;;;17.84;74.40;100523.84;10397373;28;20111;-75
2021/08/13 05:09:16;;;;;;;8.32;7.72;;;;;;;17.74;75.34;100523.50;10398877;28;20042;-74
2021/08/13 05:14:19;;;;;;;7.15;6.65;;;;;;;17.73;75.03;100518.22;10431217;28;20049;-75
2021/08/13 05:19:22;;;;;;;7.75;7.05;;;;;;;17.79;75.28;100516.13;10397857;28;20045;-75
2021/08/13 05:24:24;;;;;;;8.15;7.45;;;;;;;17.92;75.36;100521.63;10397567;28;20076;-75
2021/08/13 05:29:26;;;;;;;6.93;6.30;;;;;;;18.37;72.15;100517.38;10413569;28;20125;-75
2021/08/13 05:34:28;;;;;;;6.72;6.18;;;;;;;18.78;67.92;100528.38;10415594;28;20061;-75
2021/08/13 05:39:30;;;;;;;6.78;5.38;;;;;;;18.97;66.68;100530.81;10396653;28;20251;-75
2021/08/13 05:44:32;;;;;;;6.32;5.72;;;;;;;18.77;67.94;100526.66;10396073;28;20045;-74
2021/08/13 05:49:34;;;;;;;5.55;5.15;;;;;;;18.60;68.79;100537.38;10398054;28;20418;-74
2021/08/13 05:54:37;;;;;;;5.90;5.43;;;;;;;18.76;69.58;100530.25;10396076;28;20045;-74
2021/08/13 05:59:39;;;;;;;6.00;5.40;;;;;;;19.03;66.93;100529.59;10396704;28;20052;-74
2021/08/13 06:04:41;;;;;;;6.07;5.57;;;;;;;19.51;65.50;100539.13;10396979;28;20076;-74
2021/08/13 06:09:43;;;;;;;7.78;4.53;;;;;;;20.04;63.63;100537.63;10412932;28;20041;-75
2021/08/13 06:14:45;;;;;;;6.00;5.50;;;;;;;20.69;60.48;100523.69;10396284;28;20117;-74
2021/08/13 06:19:48;;;;;;;6.65;5.32;;;;;;;21.39;59.22;100527.00;10395826;28;20042;-74
2021/08/13 06:24:50;;;;;;;6.78;4.80;;;;;;;21.72;58.02;100520.22;10397961;28;20452;-74
2021/08/13 06:29:51;;;;;;;4.75;4.35;;;;;;;21.96;57.27;100522.13;10395896;28;20046;-75
2021/08/13 06:34:53;;;;;;;4.95;4.10;;;;;;;22.50;56.63;100520.00;10395897;28;20057;-74
2021/08/13 06:39:56;;;;;;;6.05;4.45;;;;;;;22.96;55.28;100519.25;10395523;28;20133;-74
2021/08/13 06:44:58;;;;;;;5.72;4.72;;;;;;;23.23;54.27;100528.84;10396059;28;20096;-76
2021/08/13 06:50:03;;;;;;;7.32;4.60;;;;;;;23.37;53.36;100520.59;10398044;28;20041;-75
2021/08/13 06:55:08;;;;;;;5.90;4.93;;;;;;;23.52;53.84;100510.50;10403618;28;20045;-74
2021/08/13 07:00:12;;;;;;;6.15;5.20;;;;;;;23.99;52.13;100511.25;10387498;28;20479;-74
2021/08/13 07:05:16;;;;;;;8.45;4.68;;;;;;;24.01;53.87;100512.00;10387908;28;20045;-74
2021/08/13 07:10:19;;;;;;;4.35;3.92;;;;;;;24.14;52.78;100508.22;10404176;28;20435;-75
2021/08/13 07:15:21;;;;;;;5.10;4.43;;;;;;;24.43;50.51;100513.06;10395437;28;20084;-74
2021/08/13 07:20:24;;;;;;;6.55;4.63;;;;;;;24.20;52.03;100503.31;10405642;28;20125;-75
2021/08/13 07:25:27;;;;;;;4.30;3.65;;;;;;;24.34;51.99;100509.25;10403964;28;20045;-76
2021/08/13 07:30:29;;;;;;;4.53;3.75;;;;;;;24.62;51.27;100507.88;10420583;28;20041;-73
2021/08/13 07:35:31;;;;;;;13.60;4.75;;;;;;;24.39;51.53;100512.47;10401817;28;20108;-72
2021/08/13 07:40:33;;;;;;;4.13;3.55;;;;;;;24.50;52.01;100514.28;10401070;28;20069;-73
2021/08/13 07:45:36;;;;;;;4.38;3.78;;;;;;;24.81;51.05;100517.09;10401344;28;20135;-71
2021/08/13 07:50:38;;;;;;;4.20;3.13;;;;;;;24.95;49.68;100507.88;10402732;28;20038;-71
2021/08/13 07:55:40;;;;;;;5.70;4.20;;;;;;;24.92;49.90;100511.66;10403420;28;20048;-72
2021/08/13 08:00:41;;;;;;;3.88;3.47;;;;;;;25.20;50.63;100518.28;10401105;28;20044;-73
2021/08/13 08:05:43;;;;;;;9.88;4.00;;;;;;;25.23;50.39;100511.78;10419149;28;20053;-73
2021/08/13 08:10:46;;;;;;;4.70;3.45;;;;;;;25.39;49.80;100515.72;10400173;28;20530;-72
2021/08/13 08:15:48;;;;;;;4.82;3.47;;;;;;;25.88;48.88;100519.53;10418781;28;20061;-72
2021/08/13 08:20:50;;;;;;;4.38;3.97;;;;;;;26.13;47.91;100509.28;10417221;28;20041;-73
2021/08/13 08:25:54;;;;;;;4.10;3.80;;;;;;;26.30;47.19;100510.47;10417195;28;20501;-72
2021/08/13 08:30:56;;;;;;;3.67;3.25;;;;;;;26.49;48.80;100513.22;10416870;28;20141;-72
2021/08/13 08:35:58;;;;;;;5.97;3.80;;;;;;;26.74;48.21;100516.38;10417419;28;20045;-72
2021/08/13 08:41:06;;;;;;;4.43;3.75;;;;;;;26.69;48.14;100513.25;10417530;28;20348;-71
2021/08/13 08:46:09;;;;;;;4.07;3.75;;;;;;;26.75;46.58;100513.56;10418164;28;20148;-72
2021/08/13 08:51:13;;;;;;;5.97;4.15;;;;;;;26.88;47.66;100514.13;10417831;28;20078;-71
2021/08/13 08:56:17;;;;;;;5.38;3.95;;;;;;;27.55;46.38;100517.75;10417348;28;20463;-72
2021/08/13 09:01:18;;;;;;;4.80;4.05;;;;;;;27.84;45.91;100517.66;10415413;28;20154;-72
2021/08/13 09:06:22;;;;;;;6.13;3.72;;;;;;;27.85;45.09;100516.69;10416156;28;20071;-72
2021/08/13 09:11:25;;;;;;;4.30;3.53;;;;;;;28.15;45.32;100501.16;10416244;28;20136;-72
2021/08/13 09:16:27;;;;;;;4.13;3.80;;;;;;;28.81;44.66;100502.72;10416517;28;20199;-73
2021/08/13 09:21:29;;;;;;;3.90;3.60;;;;;;;29.32;43.12;100504.72;10415317;28;20051;-71
2021/08/13 09:26:40;;;;;;;4.40;4.00;;;;;;;29.65;41.88;100513.91;10416567;28;20380;-72
2021/08/13 09:31:49;;;;;;;4.40;4.00;;;;;;;29.96;41.58;100510.69;10411604;22;20117;-72
2021/08/13 09:36:55;;;;;;;3.75;3.45;;;;;;;30.45;40.26;100510.03;10395974;28;20096;-73
2021/08/13 09:42:06;;;;;;;4.88;4.40;;;;;;;30.43;39.83;100510.22;10414824;28;20080;-73
2021/08/13 09:47:12;;;;;;;5.28;3.83;;;;;;;30.57;39.20;100514.13;10412725;28;20463;-72
2021/08/13 09:52:17;;;;;;;10.80;4.40;;;;;;;30.67;39.71;100512.13;10393626;28;20052;-74
2021/08/13 09:57:19;;;;;;;4.90;4.03;;;;;;;31.38;39.32;100507.94;10393381;28;20053;-72
2021/08/13 10:02:22;;;;;;;5.80;3.70;;;;;;;30.95;39.36;100504.56;10412516;28;20141;-72
2021/08/13 10:07:24;;;;;;;4.25;3.72;;;;;;;31.27;38.56;100497.41;10393599;28;20049;-73
2021/08/13 10:12:25;;;;;;;4.20;3.90;;;;;;;31.00;38.09;100493.19;10392808;28;20132;-73
2021/08/13 10:17:28;;;;;;;4.55;4.07;;;;;;;32.05;37.35;100484.00;10392632;28;20510;-72
2021/08/13 10:22:37;;;;;;;5.13;4.35;;;;;;;32.44;36.73;100480.38;10391752;28;20476;-72
2021/08/13 10:27:40;;;;;;;6.15;4.00;;;;;;;32.29;38.33;100474.84;10393052;28;20076;-73
2021/08/13 10:32:47;;;;;;;4.10;3.70;;;;;;;31.36;37.14;100474.69;10393167;28;20104;-73
2021/08/13 10:37:49;;;;;;;3.60;3.40;;;;;;;31.98;38.15;100472.13;10408962;28;20045;-72
2021/08/13 10:42:52;;;;;;;4.88;4.40;;;;;;;31.90;37.10;100474.88;10403125;28;20148;-73
2021/08/13 10:48:03;;;;;;;6.15;4.22;;;;;;;31.84;37.21;100478.31;10430244;28;20044;-73
2021/08/13 10:53:28;;;;;;;4.38;3.90;;;;;;;31.83;38.23;100474.75;10423462;28;20049;-74
2021/08/13 10:58:41;;;;;;;4.50;4.10;;;;;;;32.34;36.59;100474.31;10392139;28;20052;-73
2021/08/13 11:03:53;;;;;;;6.25;4.97;;;;;;;32.26;35.41;100472.47;10391587;28;20045;-74
2021/08/13 11:08:57;;;;;;;7.50;6.88;;;;;;;31.69;33.21;100461.84;10394375;28;20049;-72
2021/08/13 11:14:21;;;;;;;5.53;4.68;;;;;;;32.24;35.19;100471.81;10383576;28;20045;-74
2021/08/13 11:19:24;;;;;;;5.45;4.85;;;;;;;32.30;35.89;100468.38;10391918;28;20405;-74
2021/08/13 11:24:51;;;;;;;8.32;7.82;;;;;;;32.75;30.24;100461.28;10392332;28;20113;-74
2021/08/13 11:29:59;;;;;;;9.20;8.60;;;;;;;32.58;30.29;100457.00;10352598;28;20101;-73
2021/08/13 11:35:09;;;;;;;9.13;8.63;;;;;;;32.55;28.63;100458.22;10351515;28;20419;-73
2021/08/13 11:40:31;;;;;;;10.30;9.70;;;;;;;32.28;31.18;100456.00;10357460;28;20050;-72
2021/08/13 11:45:38;;;;;;;10.23;9.63;;;;;;;32.42;31.77;100460.69;10402540;28;20045;-72
2021/08/13 11:50:44;;;;;;;10.32;9.60;;;;;;;32.32;31.14;100452.72;10398294;28;20051;-72
2021/08/13 11:55:48;;;;;;;10.15;9.55;;;;;;;32.25;30.89;100459.91;10399161;28;20057;-73
2021/08/13 12:01:00;;;;;;;8.27;7.77;;;;;;;32.30;31.61;100445.75;10397736;28;20111;-73
2021/08/13 12:06:12;;;;;;;8.80;8.27;;;;;;;31.93;31.98;100446.50;10356419;28;20064;-72
2021/08/13 12:11:22;;;;;;;9.40;8.80;;;;;;;32.55;32.00;100435.59;10356228;28;20038;-72
2021/08/13 12:16:24;;;;;;;8.70;8.10;;;;;;;32.83;33.05;100436.72;10357103;28;20042;-72
2021/08/13 12:21:29;;;;;;;8.30;7.65;;;;;;;32.87;31.34;100445.38;10340714;28;20105;-73
2021/08/13 12:26:31;;;;;;;8.05;7.40;;;;;;;32.91;31.59;100433.09;10355512;28;20117;-73
2021/08/13 12:31:51;;;;;;;7.45;6.95;;;;;;;32.41;31.42;100431.78;10339874;28;20145;-73
2021/08/13 12:37:10;;;;;;;7.00;6.60;;;;;;;32.44;31.80;100438.72;10357066;28;20120;-73
2021/08/13 12:42:18;;;;;;;7.27;6.77;;;;;;;32.44;31.61;100444.16;10355732;28;20069;-72
2021/08/13 12:47:21;;;;;;;7.00;6.50;;;;;;;32.30;33.16;100438.44;10353731;28;20400;-72
2021/08/13 12:52:24;;;;;;;7.75;7.07;;;;;;;32.01;32.34;100424.69;10354569;28;20381;-71
2021/08/13 12:57:36;;;;;;;7.38;6.82;;;;;;;32.19;31.89;100432.59;10358732;28;20091;-71
2021/08/13 13:02:38;;;;;;;7.60;7.20;;;;;;;32.18;31.80;100434.44;10354211;28;20048;-71
2021/08/13 13:07:41;;;;;;;7.20;6.43;;;;;;;32.18;32.45;100429.00;10370691;28;20050;-72
2021/08/13 13:12:49;;;;;;;7.30;6.90;;;;;;;32.10;33.63;100421.75;10354342;28;20048;-72
2021/08/13 13:17:56;;;;;;;7.00;6.47;;;;;;;32.14;32.28;100420.38;10370854;28;20057;-72
2021/08/13 13:23:04;;;;;;;7.10;6.47;;;;;;;30.92;32.81;100417.19;10353165;28;20356;-71
2021/08/13 13:28:10;;;;;;;6.80;6.20;;;;;;;31.25;32.22;100412.53;10352626;28;20045;-73
2021/08/13 13:33:39;;;;;;;7.50;6.93;;;;;;;31.82;31.68;100412.34;10352191;28;20046;-72
2021/08/13 13:38:57;;;;;;;7.40;6.55;;;;;;;31.64;32.80;100401.72;10352323;28;20050;-72
2021/08/13 13:44:01;;;;;;;7.43;6.82;;;;;;;31.63;32.43;100395.44;10353597;28;20114;-71
2021/08/13 13:49:02;;;;;;;7.60;7.10;;;;;;;31.70;31.77;100389.28;10369953;28;20041;-71
2021/08/13 13:54:06;;;;;;;7.18;6.45;;;;;;;31.45;32.43;100392.13;10352250;28;20114;-72
2021/08/13 13:59:08;;;;;;;6.70;6.20;;;;;;;31.13;32.13;100385.75;10352338;28;20050;-73
2021/08/13 14:04:10;;;;;;;7.05;6.53;;;;;;;31.22;31.62;100392.00;10356956;28;20121;-73
2021/08/13 14:09:12;;;;;;;6.95;6.47;;;;;;;31.18;31.47;100382.50;10370566;28;20053;-72
2021/08/13 14:14:14;;;;;;;9.05;6.30;;;;;;;30.76;32.77;100396.31;10369224;28;20104;-72
2021/08/13 14:19:15;;;;;;;6.22;5.72;;;;;;;30.76;33.75;100396.31;10351516;28;20113;-72
2021/08/13 14:24:17;;;;;;;6.50;5.95;;;;;;;30.88;33.54;100386.81;10351833;28;20598;-72
2021/08/13 14:29:19;;;;;;;7.28;6.65;;;;;;;30.79;33.57;100399.53;10370359;28;20045;-72
2021/08/13 14:34:21;;;;;;;6.93;6.25;;;;;;;30.85;33.24;100392.56;10369279;28;20124;-72
2021/08/13 14:39:24;;;;;;;6.53;6.03;;;;;;;30.46;35.71;100395.97;10350407;28;20120;-72
2021/08/13 14:44:26;;;;;;;7.80;7.05;;;;;;;30.07;35.65;100385.72;10350863;28;20064;-72
2021/08/13 14:49:28;;;;;;;7.25;6.75;;;;;;;29.95;35.94;100384.31;10352770;28;20050;-72
2021/08/13 14:54:30;;;;;;;7.35;6.85;;;;;;;30.11;37.25;100386.22;10349521;28;20104;-72
2021/08/13 14:59:31;;;;;;;6.82;6.43;;;;;;;30.29;35.27;100380.69;10367401;28;20349;-73
2021/08/13 15:04:33;;;;;;;7.85;7.18;;;;;;;30.28;35.43;100379.84;10334132;28;20099;-73
2021/08/13 15:09:35;;;;;;;7.20;6.47;;;;;;;30.42;37.09;100369.34;10335449;28;20081;-72
2021/08/13 15:14:37;;;;;;;6.43;6.00;;;;;;;29.93;36.05;100372.81;10374228;28;20077;-72
2021/08/13 15:19:39;;;;;;;6.63;6.13;;;;;;;29.89;38.03;100380.41;10358270;28;20038;-71
2021/08/13 15:24:41;;;;;;;6.22;5.82;;;;;;;30.35;37.07;100363.75;10342003;28;20472;-73
2021/08/13 15:29:42;;;;;;;7.07;5.82;;;;;;;30.70;34.74;100364.41;10396719;22;20020;-74
2021/08/13 15:34:45;;;;;;;7.18;6.68;;;;;;;30.39;36.04;100356.97;10454134;28;20077;-75
2021/08/13 15:39:48;;;;;;;7.07;6.53;;;;;;;30.12;37.47;100352.69;10460517;28;20037;-75
2021/08/13 15:44:49;;;;;;;7.30;6.68;;;;;;;29.99;37.31;100355.88;10459936;28;20124;-75
2021/08/13 15:49:51;;;;;;;7.05;6.55;;;;;;;29.82;38.24;100351.44;10459750;28;20045;-76
2021/08/13 15:54:53;;;;;;;7.07;6.53;;;;;;;29.51;38.36;100354.69;10459351;28;20132;-76
2021/08/13 15:59:54;;;;;;;7.07;6.60;;;;;;;29.39;38.39;100348.69;10460326;28;20158;-77
2021/08/13 16:04:56;;;;;;;7.20;6.70;;;;;;;29.21;38.84;100356.06;10441974;28;20470;-75
2021/08/13 16:09:58;;;;;;;7.35;6.93;;;;;;;29.00;39.75;100359.19;10459150;28;20376;-75
2021/08/13 16:15:00;;;;;;;6.50;6.10;;;;;;;29.13;39.18;100364.13;10458861;28;20094;-76
2021/08/13 16:20:03;;;;;;;7.40;6.80;;;;;;;29.08;40.08;100358.34;10440683;28;20055;-76
2021/08/13 16:25:05;;;;;;;7.30;6.80;;;;;;;29.15;39.26;100359.44;10456199;28;20466;-76
2021/08/13 16:30:08;;;;;;;7.45;6.40;;;;;;;29.06;38.98;100358.53;10460044;28;20451;-76
2021/08/13 16:35:10;;;;;;;7.10;6.63;;;;;;;29.33;39.38;100353.94;10459029;28;20051;-76
2021/08/13 16:40:12;;;;;;;7.10;6.35;;;;;;;29.20;39.68;100356.22;10458823;28;20064;-75
2021/08/13 16:45:14;;;;;;;7.22;6.63;;;;;;;28.97;40.52;100354.06;10459504;28;20140;-75
2021/08/13 16:50:16;;;;;;;6.88;6.25;;;;;;;28.86;40.22;100349.72;10458900;28;20053;-75
2021/08/13 16:55:17;;;;;;;6.00;5.60;;;;;;;28.75;40.37;100341.91;10459375;28;20562;-75
2021/08/13 17:00:20;;;;;;;6.57;6.10;;;;;;;28.55;40.65;100341.22;10459173;28;20037;-75
2021/08/13 17:05:22;;;;;;;6.80;6.30;;;;;;;28.63;41.49;100346.69;10457666;28;20049;-75
2021/08/13 17:10:24;;;;;;;6.38;5.97;;;;;;;28.48;44.04;100347.44;10457507;28;20049;-75
2021/08/13 17:15:26;;;;;;;7.63;6.93;;;;;;;28.40;45.03;100340.94;10457952;28;20458;-75
2021/08/13 17:20:28;;;;;;;7.43;6.82;;;;;;;28.16;45.61;100336.16;10457657;28;20063;-76
2021/08/13 17:25:30;;;;;;;7.43;6.85;;;;;;;28.19;45.73;100343.09;10456759;28;20496;-75
2021/08/13 17:30:31;;;;;;;7.25;6.75;;;;;;;27.96;46.89;100336.47;10457614;28;20028;-75
2021/08/13 17:35:34;;;;;;;7.95;7.28;;;;;;;27.84;47.49;100349.31;10456328;28;20480;-75
2021/08/13 17:40:36;;;;;;;8.77;6.82;;;;;;;27.71;48.17;100346.09;10458305;28;20147;-75
2021/08/13 17:45:40;;;;;;;9.50;8.60;;;;;;;27.46;48.57;100350.38;10457524;28;20363;-76
2021/08/13 17:50:42;;;;;;;9.02;8.23;;;;;;;27.31;49.52;100341.91;10458191;28;20037;-74
2021/08/13 17:55:44;;;;;;;9.68;8.88;;;;;;;27.20;49.86;100344.81;10457397;28;20048;-74
2021/08/13 18:00:46;;;;;;;10.95;9.82;;;;;;;27.03;50.53;100341.00;10456188;28;20071;-74
2021/08/13 18:05:48;;;;;;;11.45;10.55;;;;;;;26.84;50.77;100344.63;10455676;28;20037;-75
2021/08/13 18:10:50;;;;;;;10.95;10.13;;;;;;;26.66;51.51;100345.38;10453885;28;20045;-74
2021/08/13 18:15:52;;;;;;;12.30;10.55;;;;;;;26.46;52.32;100341.00;10456034;28;20498;-75
2021/08/13 18:20:55;;;;;;;11.88;10.73;;;;;;;26.32;52.51;100354.88;10441460;28;20075;-74
2021/08/13 18:25:57;;;;;;;11.93;10.93;;;;;;;26.14;53.10;100355.56;10458584;28;20058;-74
2021/08/13 18:30:59;;;;;;;11.25;10.27;;;;;;;25.98;53.68;100346.34;10456753;28;20037;-74
2021/08/13 18:36:01;;;;;;;11.32;10.35;;;;;;;25.77;54.12;100351.84;10458083;28;20045;-73
2021/08/13 18:41:06;;;;;;;13.60;11.43;;;;;;;25.59;54.28;100359.72;10437627;28;20043;-74
2021/08/13 18:46:08;;;;;;;20.17;11.80;;;;;;;25.45;54.91;100371.69;10454075;28;20435;-74
2021/08/13 18:51:11;;;;;;;15.70;12.23;;;;;;;25.28;56.50;100365.13;10453187;28;20079;-72
2021/08/13 18:56:13;;;;;;;12.57;11.52;;;;;;;25.19;56.27;100370.44;10454065;28;20052;-73
2021/08/13 19:01:15;;;;;;;11.02;10.05;;;;;;;25.06;57.02;100371.50;10436652;28;20041;-72
2021/08/13 19:06:16;;;;;;;11.20;10.10;;;;;;;25.00;57.08;100377.41;10452807;28;20563;-72
2021/08/13 19:11:19;;;;;;;10.88;9.95;;;;;;;24.87;55.87;100374.91;10453919;28;20065;-72
2021/08/13 19:16:20;;;;;;;11.10;10.10;;;;;;;24.75;55.97;100391.28;10453084;28;20474;-72
2021/08/13 19:21:22;;;;;;;10.52;9.73;;;;;;;24.84;55.89;100395.84;10453993;28;20045;-73
2021/08/13 19:26:24;;;;;;;10.63;9.73;;;;;;;24.70;57.09;100396.16;10435964;28;20119;-74
2021/08/13 19:31:26;;;;;;;10.55;9.50;;;;;;;24.67;57.08;100391.91;10454367;28;20064;-73
2021/08/13 19:36:32;;;;;;;11.68;10.52;;;;;;;24.62;56.35;100400.38;10436088;28;20049;-74
2021/08/13 19:41:34;;;;;;;12.32;9.52;;;;;;;24.62;56.42;100400.38;10455432;28;20144;-74
2021/08/13 19:46:36;;;;;;;10.68;9.88;;;;;;;24.61;55.49;100396.00;10454227;28;20464;-73
2021/08/13 19:51:38;;;;;;;9.45;8.75;;;;;;;24.67;54.48;100408.91;10451626;28;20119;-72
2021/08/13 19:56:40;;;;;;;10.60;9.52;;;;;;;24.77;54.04;100405.41;10422149;28;20444;-73
2021/08/13 20:01:42;;;;;;;10.68;8.93;;;;;;;24.86;54.76;100410.84;10461395;28;20041;-73
2021/08/13 20:06:43;;;;;;;11.13;10.30;;;;;;;24.89;53.36;100407.91;10461709;28;20113;-73
2021/08/13 20:11:45;;;;;;;10.65;9.63;;;;;;;24.85;52.64;100414.53;10458873;28;20055;-73
2021/08/13 20:16:47;;;;;;;10.90;9.85;;;;;;;24.78;53.05;100402.59;10443317;28;20049;-72
2021/08/13 20:21:48;;;;;;;11.15;10.35;;;;;;;24.78;52.94;100401.75;10460762;28;20148;-73
2021/08/13 20:26:52;;;;;;;10.38;9.60;;;;;;;24.65;53.86;100404.63;10461330;28;20337;-74
2021/08/13 20:31:54;;;;;;;11.18;9.60;;;;;;;24.69;53.06;100403.38;10462540;28;20047;-74
2021/08/13 20:36:56;;;;;;;9.57;8.98;;;;;;;24.65;54.08;100402.78;10473686;28;20048;-73
2021/08/13 20:41:59;;;;;;;10.95;10.23;;;;;;;24.53;54.14;100401.16;10451969;28;20117;-73
2021/08/13 20:47:01;;;;;;;11.00;9.95;;;;;;;24.48;54.08;100394.44;10468721;28;20044;-74
2021/08/13 20:52:03;;;;;;;11.07;10.10;;;;;;;24.32;54.60;100398.41;10452005;28;20103;-74
2021/08/13 20:57:06;;;;;;;10.82;9.95;;;;;;;24.22;55.23;100396.63;10449698;28;20052;-73
2021/08/13 21:02:08;;;;;;;9.95;9.25;;;;;;;24.10;55.93;100393.94;10449665;28;20506;-73
2021/08/13 21:07:10;;;;;;;10.88;10.07;;;;;;;24.08;56.03;100393.25;10467620;28;20068;-74
2021/08/13 21:12:12;;;;;;;10.93;10.20;;;;;;;24.05;56.21;100377.38;10468459;28;20132;-73
2021/08/13 21:17:14;;;;;;;12.05;11.15;;;;;;;24.01;56.71;100380.44;10464622;28;20045;-73
2021/08/13 21:22:16;;;;;;;10.82;10.18;;;;;;;23.89;56.82;100377.75;10461856;28;20396;-73
2021/08/13 21:27:18;;;;;;;11.63;10.73;;;;;;;23.83;57.18;100378.28;10444223;28;20406;-73
2021/08/13 21:32:20;;;;;;;11.25;10.40;;;;;;;23.72;57.78;100374.75;10495866;22;20435;-70
2021/08/13 21:37:22;;;;;;;11.48;10.68;;;;;;;23.57;58.67;100374.13;10534600;28;20095;-70
2021/08/13 21:42:24;;;;;;;12.05;11.15;;;;;;;23.45;59.12;100375.13;10535160;28;20048;-69
2021/08/13 21:47:25;;;;;;;10.90;10.20;;;;;;;23.28;59.51;100379.13;10518219;28;20047;-69
2021/08/13 21:52:27;;;;;;;11.50;10.57;;;;;;;23.16;59.58;100365.75;10517647;28;20048;-69
2021/08/13 21:57:28;;;;;;;12.13;11.27;;;;;;;23.06;60.29;100366.56;10535204;28;20109;-69
2021/08/13 22:02:30;;;;;;;11.68;10.85;;;;;;;22.99;60.65;100368.03;10535203;28;20150;-70
2021/08/13 22:07:32;;;;;;;11.77;10.88;;;;;;;23.04;59.52;100372.06;10535086;28;20169;-69
2021/08/13 22:12:34;;;;;;;12.27;11.45;;;;;;;23.14;60.58;100381.09;10515996;28;20043;-69
2021/08/13 22:17:37;;;;;;;11.95;11.00;;;;;;;23.00;61.79;100383.16;10535233;28;20165;-68
2021/08/13 22:22:39;;;;;;;13.75;10.82;;;;;;;22.91;61.60;100385.56;10516610;28;20561;-68
2021/08/13 22:27:41;;;;;;;10.55;9.75;;;;;;;22.94;61.45;100386.31;10535218;28;20073;-70
2021/08/13 22:32:44;;;;;;;12.05;10.98;;;;;;;22.78;61.55;100383.94;10536350;28;20385;-70
2021/08/13 22:37:46;;;;;;;11.88;10.88;;;;;;;22.65;61.15;100400.09;10534657;28;20070;-69
2021/08/13 22:42:48;;;;;;;10.80;10.10;;;;;;;22.62;61.16;100403.88;10533590;28;20200;-69
2021/08/13 22:47:50;;;;;;;12.40;11.32;;;;;;;22.56;62.86;100447.19;10532698;28;20509;-70
2021/08/13 22:52:51;;;;;;;14.35;13.00;;;;;;;22.61;61.92;100428.94;10534634;28;20052;-70
2021/08/13 22:57:56;;;;;;;13.90;12.88;;;;;;;22.48;61.67;100436.19;10533272;28;20511;-69
2021/08/13 23:02:58;;;;;;;13.40;11.98;;;;;;;22.79;60.67;100428.50;10532019;28;20331;-69
2021/08/13 23:08:00;;;;;;;12.63;11.63;;;;;;;22.69;60.67;100435.56;10514946;28;20048;-70
2021/08/13 23:13:02;;;;;;;11.88;10.98;;;;;;;22.35;61.50;100438.06;10532443;28;20044;-69